KMBS/MBS METAR and TAF weather

Enter ICAO airport designator
Station Type Date Time Source
KMBS METAR 2022/11/27 07:53 UTC NOAA

KMBS 270753Z AUTO 00000KT 10SM CLR 03/M02 A2972 RMK AO2 SLP069 T00331017


Station Type Date Time Source
KMBS Decoded METAR 2022/11/27 07:53 UTC NOAA

MBS INTERNATIONAL AIRPORT, MI, United States (KMBS) 43-32N 084-05W 202M
Nov 27, 2022 - 02:53 AM EST / 2022.11.27 0753 UTC
Wind: Calm:0
Visibility: 10 mile(s):0
Sky conditions: clear
Temperature: 37.9 F (3.3 C)
Dew Point: 28.9 F (-1.7 C)
Relative Humidity: 69%
Pressure (altimeter): 29.72 in. Hg (1006 hPa)
ob: KMBS 270753Z AUTO 00000KT 10SM CLR 03/M02 A2972 RMK AO2 SLP069 T00331017
cycle: 8

Station Type Date Time Source
KMBS TAF 2022/11/27 06:36 UTC NOAA

TAF KMBS 270535Z 2706/2806 22007KT P6SM OVC200
FM271000 15005KT P6SM OVC150
FM271500 09009KT 6SM -SHRA BKN045 OVC080
FM272000 36010KT 3SM -RA BR OVC012
FM280300 31009KT P6SM SCT015 BKN025

Example: see airport list